CheckWX is a tool to help pilots better visualize weather data.  It is not intended as a substitute for an official pre-flight weather briefing.

17:31:11 UTC

WSSS TAF
Singapore Changi International Airport
Singapore, Singapore
TAF WSSS 061100Z 0612/0718 01007KT 9999 FEW015 SCT020 TEMPO 0706/0709 3000 TSRA FEW012CB BKN015

Apr-6@
12:00 UTC

Apr-6 @ 12:00 UTC

Apr-7@
18:00 UTC

Apr-7 @ 18:00 UTC

TAF WSSS 061100Z 0612/0718 01007KT 9999 FEW015 SCT020
Wind
  • 010° at 7 KTS
Cloud Levels
  • Few at 1,500' AGL
  • Scattered at 2,000' AGL

Apr-7@
06:00 UTC

Apr-7 @ 06:00 UTC

Apr-7@
09:00 UTC

Apr-7 @ 09:00 UTC

TEMPO 0706/0709 3000 TSRA FEW012CB BKN015

Expired

Conditions
Thunderstorm, Rain
Cloud Levels
  • Few at 1,200' AGL
  • Broken at 1,500' AGL